Main page
METAR-TAF:

METAR-TAF

Airports :

Herat International Airport

Herat, Afghanistan

latitude: 34-13N, longitude: 062-13E, elevation: 964 m

Current weather observation

The report was made 26 minutes ago, at 05:55 UTC
Wind 22 kt from the North with gusts up to 33 kt
Temperature 27°C
Humidity 24%
Pressure 1012 hPa
Visibility: 8000 m

METAR: OAHR 300555Z 35022G33KT 8000 NSC 27/05 Q1012 RMK A2989 BLU

Time: 10:51 (06:21 UTC)


TAF: missing

Weather observations and forecasts of more than 4000 airports (METAR and TAF reports).

The available stations are represented by yellow and red dots on the map.

Hover mouse over dot to see the name of the station.

Then click to see weather observations and forecasts.

To change the map : click on the green buttons with a black cross to zoom in, on the green button with a dash to zoom out, or on the green arrows for adjacent maps.


METAR-TAF: